createdAt,value
2023-04-17T00:00:26.193Z,100397.50
2023-04-17T00:01:29.905Z,100404.49
2023-04-17T00:02:32.339Z,100398.41
2023-04-17T00:03:35.378Z,100400.23
2023-04-17T00:04:40.206Z,100404.69
2023-04-17T00:05:44.355Z,100409.03
2023-04-17T00:06:46.732Z,100403.59
2023-04-17T00:07:48.971Z,100410.29
2023-04-17T00:08:51.587Z,100405.95
2023-04-17T00:09:53.897Z,100411.86
2023-04-17T00:11:06.540Z,100410.91
2023-04-17T00:12:00.876Z,100410.18
2023-04-17T00:13:03.213Z,100414.55
2023-04-17T00:14:05.655Z,100414.45
2023-04-17T00:15:08.454Z,100413.56
2023-04-17T00:16:12.121Z,100416.16
2023-04-17T00:17:14.650Z,100415.37
2023-04-17T00:18:16.884Z,100417.18
2023-04-17T00:19:19.438Z,100413.77
2023-04-17T00:20:21.731Z,100411.28
2023-04-17T00:21:24.198Z,100414.69
2023-04-17T00:22:26.660Z,100416.46
2023-04-17T00:23:29.027Z,100413.97
2023-04-17T00:24:31.480Z,100413.91
2023-04-17T00:25:34.017Z,100417.28
2023-04-17T00:26:36.497Z,100418.80
2023-04-17T00:27:40.022Z,100418.80
2023-04-17T00:28:42.516Z,100415.47
2023-04-17T00:29:44.974Z,100413.81
2023-04-17T00:30:47.322Z,100414.55
2023-04-17T00:31:50.149Z,100410.03
2023-04-17T00:32:53.618Z,100412.38
2023-04-17T00:33:58.138Z,100419.20
2023-04-17T00:35:00.974Z,100417.49
2023-04-17T00:36:04.039Z,100417.49
2023-04-17T00:37:06.331Z,100416.72
2023-04-17T00:38:08.781Z,100414.33
2023-04-17T00:39:11.693Z,100418.44
2023-04-17T00:40:15.282Z,100424.38
2023-04-17T00:41:17.949Z,100427.70
2023-04-17T00:42:20.188Z,100419.20
2023-04-17T00:43:22.335Z,100426.93
2023-04-17T00:44:25.090Z,100418.42
2023-04-17T00:45:30.333Z,100420.97
2023-04-17T00:46:32.705Z,100418.16
2023-04-17T00:47:34.947Z,100422.36
2023-04-17T00:48:37.622Z,100419.64
2023-04-17T00:49:40.460Z,100421.28
2023-04-17T00:50:44.865Z,100421.19
2023-04-17T00:51:48.509Z,100417.59
2023-04-17T00:52:51.669Z,100407.88
2023-04-17T00:53:54.960Z,100416.66
2023-04-17T00:54:59.646Z,100415.11
2023-04-17T00:56:06.390Z,100413.45
2023-04-17T00:57:09.095Z,100417.05
2023-04-17T00:58:12.073Z,100413.86
2023-04-17T00:59:17.050Z,100412.38
2023-04-17T01:00:19.684Z,100417.55
2023-04-17T01:01:22.190Z,100419.31
2023-04-17T01:02:26.207Z,100420.91
2023-04-17T01:03:31.558Z,100422.68
2023-04-17T01:04:34.414Z,100412.53
2023-04-17T01:05:37.751Z,100419.36
2023-04-17T01:06:41.603Z,100416.63
2023-04-17T01:07:46.562Z,100419.20
2023-04-17T01:08:51.049Z,100417.40
2023-04-17T01:09:54.132Z,100414.17
2023-04-17T01:10:58.169Z,100414.39
2023-04-17T01:13:33.164Z,100406.81
2023-04-17T01:14:36.174Z,100412.20
2023-04-17T01:15:38.481Z,100416.67
2023-04-17T01:16:41.456Z,100411.58
2023-04-17T01:17:44.029Z,100414.99
2023-04-17T01:18:47.657Z,100419.24
2023-04-17T01:19:50.271Z,100407.80
2023-04-17T01:20:52.763Z,100407.80
2023-04-17T01:21:55.409Z,100416.61
2023-04-17T01:22:58.922Z,100411.42
2023-04-17T01:24:03.277Z,100411.42
2023-04-17T01:25:07.784Z,100407.02
2023-04-17T01:26:19.185Z,100407.95
2023-04-17T01:27:21.951Z,100406.39
2023-04-17T01:28:24.666Z,100411.72
2023-04-17T01:29:27.315Z,100404.00
2023-04-17T01:30:30.795Z,100417.73
2023-04-17T01:31:37.857Z,100414.45
2023-04-17T01:32:40.819Z,100412.61
2023-04-17T01:33:43.780Z,100413.43
2023-04-17T01:34:46.288Z,100414.36
2023-04-17T01:35:48.801Z,100411.72
2023-04-17T01:36:51.951Z,100414.47
2023-04-17T01:37:55.532Z,100410.22
2023-04-17T01:38:58.809Z,100414.59
2023-04-17T01:40:01.900Z,100414.47
2023-04-17T01:41:05.985Z,100411.14
2023-04-17T01:42:09.427Z,100407.48
2023-04-17T01:43:11.922Z,100414.47
2023-04-17T01:44:15.074Z,100396.47
2023-04-17T01:45:17.436Z,100396.47
2023-04-17T01:46:21.887Z,100413.43
2023-04-17T01:47:24.682Z,100411.42
2023-04-17T01:48:27.757Z,100410.45
2023-04-17T01:49:31.279Z,100406.09
2023-04-17T01:50:33.865Z,100411.28
2023-04-17T01:51:36.107Z,100407.86
2023-04-17T01:52:39.305Z,100411.28
2023-04-17T01:54:46.489Z,100409.36
2023-04-17T01:55:48.842Z,100410.50
2023-04-17T01:56:51.368Z,100410.55
2023-04-17T01:57:53.933Z,100410.55
2023-04-17T01:58:56.196Z,100413.05
2023-04-17T01:59:58.450Z,100408.69
2023-04-17T02:01:00.720Z,100412.15
2023-04-17T02:02:03.785Z,100412.41
2023-04-17T02:03:06.455Z,100418.36
2023-04-17T02:04:09.327Z,100413.14
2023-04-17T02:05:11.781Z,100413.14
2023-04-17T02:06:16.091Z,100410.34
2023-04-17T02:07:20.857Z,100417.18
2023-04-17T02:08:23.663Z,100408.48
2023-04-17T02:09:26.511Z,100414.60
2023-04-17T02:10:30.388Z,100411.22
2023-04-17T02:11:32.713Z,100411.06
2023-04-17T02:12:35.037Z,100405.11
2023-04-17T02:13:37.659Z,100415.32
2023-04-17T02:14:40.120Z,100413.61
2023-04-17T02:15:42.382Z,100414.65
2023-04-17T02:16:47.784Z,100416.16
2023-04-17T02:17:50.791Z,100413.55
2023-04-17T02:18:53.691Z,100411.59
2023-04-17T02:19:56.214Z,100415.94
2023-04-17T02:20:58.756Z,100419.98
2023-04-17T02:22:02.491Z,100423.34
2023-04-17T02:23:06.790Z,100428.27
2023-04-17T02:24:08.975Z,100424.71
2023-04-17T02:25:11.122Z,100422.66
2023-04-17T02:26:13.585Z,100422.33
2023-04-17T02:27:17.882Z,100421.34
2023-04-17T02:28:20.228Z,100421.17
2023-04-17T02:29:22.381Z,100427.11
2023-04-17T02:30:27.132Z,100428.66
2023-04-17T02:31:31.158Z,100425.27
2023-04-17T02:32:34.024Z,100423.59
2023-04-17T02:33:38.006Z,100419.22
2023-04-17T02:34:40.974Z,100422.80
2023-04-17T02:35:43.481Z,100426.52
2023-04-17T02:36:46.008Z,100427.70
2023-04-17T02:37:48.367Z,100429.41
2023-04-17T02:38:50.827Z,100433.52
2023-04-17T02:39:54.070Z,100433.97
2023-04-17T02:40:57.291Z,100426.75
2023-04-17T02:42:03.170Z,100429.17
2023-04-17T02:43:05.815Z,100435.01
2023-04-17T02:44:08.606Z,100430.42
2023-04-17T02:45:11.383Z,100432.94
2023-04-17T02:46:15.536Z,100432.94
2023-04-17T02:47:18.135Z,100433.06
2023-04-17T02:48:20.995Z,100438.06
2023-04-17T02:49:23.446Z,100438.58
2023-04-17T02:50:25.793Z,100440.47
2023-04-17T02:51:36.500Z,100439.73
2023-04-17T02:52:40.279Z,100436.71
2023-04-17T02:53:43.146Z,100438.44
2023-04-17T02:54:45.732Z,100435.90
2023-04-17T02:55:49.441Z,100430.01
2023-04-17T02:56:59.080Z,100432.31
2023-04-17T02:58:01.538Z,100436.50
2023-04-17T02:59:04.516Z,100435.37
2023-04-17T03:00:07.836Z,100434.81
2023-04-17T03:01:11.742Z,100439.78
2023-04-17T03:02:18.708Z,100441.81
2023-04-17T03:03:21.231Z,100437.17
2023-04-17T03:04:24.269Z,100439.43
2023-04-17T03:05:28.637Z,100441.09
2023-04-17T03:06:32.225Z,100445.27
2023-04-17T03:07:34.466Z,100442.52
2023-04-17T03:08:38.287Z,100445.00
2023-04-17T03:09:42.534Z,100446.70
2023-04-17T03:10:45.024Z,100448.65
2023-04-17T03:11:50.992Z,100445.34
2023-04-17T03:12:53.335Z,100448.10
2023-04-17T03:13:55.561Z,100452.64
2023-04-17T03:14:57.808Z,100450.81
2023-04-17T03:16:01.106Z,100450.16
2023-04-17T03:17:03.804Z,100456.28
2023-04-17T03:18:06.113Z,100456.55
2023-04-17T03:19:08.596Z,100452.97
2023-04-17T03:20:12.025Z,100451.36
2023-04-17T03:21:14.588Z,100453.19
2023-04-17T03:22:17.131Z,100460.97
2023-04-17T03:23:19.891Z,100465.11
2023-04-17T03:24:22.044Z,100459.48
2023-04-17T03:25:24.462Z,100457.22
2023-04-17T03:26:29.669Z,100464.31
2023-04-17T03:27:34.204Z,100460.68
2023-04-17T03:28:38.295Z,100464.06
2023-04-17T03:29:40.632Z,100467.58
2023-04-17T03:30:43.763Z,100464.06
2023-04-17T03:31:46.046Z,100470.94
2023-04-17T03:32:49.414Z,100465.86
2023-04-17T03:33:52.559Z,100469.34
2023-04-17T03:34:55.758Z,100469.19
2023-04-17T03:35:58.225Z,100466.20
2023-04-17T03:37:00.655Z,100467.98
2023-04-17T03:38:05.146Z,100471.33
2023-04-17T03:39:07.508Z,100477.13
2023-04-17T03:40:11.404Z,100474.27
2023-04-17T03:41:13.798Z,100477.91
2023-04-17T03:42:16.254Z,100479.62
2023-04-17T03:43:19.869Z,100470.30
2023-04-17T03:44:22.213Z,100480.61
2023-04-17T03:45:25.636Z,100482.00
2023-04-17T03:46:28.522Z,100484.75
2023-04-17T03:47:31.544Z,100485.91
2023-04-17T03:48:34.610Z,100482.48
2023-04-17T03:49:37.184Z,100484.47
2023-04-17T03:50:40.989Z,100484.47
2023-04-17T03:51:43.678Z,100487.91
2023-04-17T03:52:47.884Z,100490.55
2023-04-17T03:53:51.243Z,100488.61
2023-04-17T03:54:54.262Z,100489.89
2023-04-17T03:55:57.000Z,100489.89
2023-04-17T03:57:04.502Z,100494.86
2023-04-17T03:58:07.562Z,100493.70
2023-04-17T03:59:10.078Z,100494.24
2023-04-17T04:00:16.044Z,100495.80
2023-04-17T04:01:23.073Z,100500.81
2023-04-17T04:02:29.993Z,100502.42
2023-04-17T04:03:32.874Z,100502.27
2023-04-17T04:04:36.947Z,100496.91
2023-04-17T04:05:41.704Z,100502.81
2023-04-17T04:06:46.696Z,100501.86
2023-04-17T04:07:50.727Z,100500.08
2023-04-17T04:08:56.591Z,100495.13
2023-04-17T04:09:59.017Z,100493.52
2023-04-17T04:11:02.717Z,100495.84
2023-04-17T04:12:09.940Z,100488.78
2023-04-17T04:13:16.750Z,100495.78
2023-04-17T04:14:21.067Z,100495.20
2023-04-17T04:15:24.981Z,100488.16
2023-04-17T04:16:29.272Z,100494.73
2023-04-17T04:17:33.803Z,100492.73
2023-04-17T04:18:36.628Z,100497.44
2023-04-17T04:19:40.388Z,100498.44
2023-04-17T04:20:43.490Z,100497.94
2023-04-17T04:21:49.205Z,100494.36
2023-04-17T04:22:52.170Z,100501.16
2023-04-17T04:23:55.794Z,100505.52
2023-04-17T04:24:58.920Z,100503.64
2023-04-17T04:26:03.122Z,100506.11
2023-04-17T04:27:17.234Z,100507.22
2023-04-17T04:28:22.982Z,100510.87
2023-04-17T04:29:25.362Z,100507.17
2023-04-17T04:30:29.953Z,100511.47
2023-04-17T04:31:35.143Z,100510.47
2023-04-17T04:32:38.322Z,100506.88
2023-04-17T04:33:43.978Z,100500.67
2023-04-17T04:34:46.894Z,100508.48
2023-04-17T04:35:51.283Z,100504.30
2023-04-17T04:36:54.309Z,100511.26
2023-04-17T04:38:01.462Z,100506.19
2023-04-17T04:39:06.178Z,100505.34
2023-04-17T04:40:11.817Z,100507.56
2023-04-17T04:41:17.196Z,100509.33
2023-04-17T04:42:22.827Z,100507.45
2023-04-17T04:43:33.616Z,100517.17
2023-04-17T04:44:36.905Z,100510.44
2023-04-17T04:45:39.963Z,100510.42
2023-04-17T04:46:42.451Z,100511.97
2023-04-17T04:47:44.819Z,100518.22
2023-04-17T04:48:47.502Z,100511.64
2023-04-17T04:49:50.445Z,100513.51
2023-04-17T04:50:58.098Z,100510.70
2023-04-17T04:52:00.647Z,100516.32
2023-04-17T04:53:05.275Z,100510.09
2023-04-17T04:54:15.477Z,100511.69
2023-04-17T04:55:22.345Z,100511.58
2023-04-17T04:56:26.081Z,100512.53
2023-04-17T04:57:30.027Z,100509.30
2023-04-17T04:58:34.477Z,100514.73
2023-04-17T04:59:39.073Z,100517.30
2023-04-17T05:01:00.263Z,100512.29
2023-04-17T05:02:08.434Z,100521.59
2023-04-17T05:03:12.176Z,100511.95
2023-04-17T05:04:15.118Z,100512.63
2023-04-17T05:05:17.938Z,100509.41
2023-04-17T05:06:20.740Z,100507.55
2023-04-17T05:07:25.412Z,100513.82
2023-04-17T05:08:28.928Z,100510.19
2023-04-17T05:09:35.486Z,100510.71
2023-04-17T05:10:39.193Z,100503.97
2023-04-17T05:11:41.617Z,100506.70
2023-04-17T05:12:44.575Z,100501.36
2023-04-17T05:13:47.333Z,100507.66
2023-04-17T05:14:51.518Z,100512.11
2023-04-17T05:15:54.753Z,100506.95
2023-04-17T05:16:59.242Z,100507.64
2023-04-17T05:18:03.293Z,100509.30
2023-04-17T05:19:08.365Z,100510.03
2023-04-17T05:20:21.601Z,100518.63
2023-04-17T05:21:27.908Z,100518.91
2023-04-17T05:22:31.670Z,100516.83
2023-04-17T05:23:35.814Z,100521.23
2023-04-17T05:24:40.275Z,100518.63
2023-04-17T05:25:44.427Z,100515.00
2023-04-17T05:26:47.032Z,100518.93
2023-04-17T05:27:49.546Z,100518.93
2023-04-17T05:28:52.246Z,100520.38
2023-04-17T05:29:56.412Z,100526.16
2023-04-17T05:30:59.719Z,100518.53
2023-04-17T05:32:04.110Z,100527.28
2023-04-17T05:33:17.494Z,100523.58
2023-04-17T05:34:24.915Z,100532.41
2023-04-17T05:35:29.468Z,100531.30
2023-04-17T05:36:32.638Z,100517.16
2023-04-17T05:37:36.352Z,100517.16
2023-04-17T05:38:38.666Z,100533.34
2023-04-17T05:39:42.707Z,100537.75
2023-04-17T05:40:46.007Z,100536.66
2023-04-17T05:41:48.412Z,100545.10
2023-04-17T05:42:50.564Z,100548.35
2023-04-17T05:43:53.490Z,100543.46
2023-04-17T05:44:56.025Z,100546.11
2023-04-17T05:45:58.781Z,100544.94
2023-04-17T05:47:01.458Z,100543.05
2023-04-17T05:48:04.093Z,100547.41
2023-04-17T05:49:06.413Z,100544.16
2023-04-17T05:50:10.462Z,100549.95
2023-04-17T05:51:13.973Z,100541.52
2023-04-17T05:52:17.232Z,100546.64
2023-04-17T05:53:20.211Z,100539.64
2023-04-17T05:54:29.126Z,100544.05
2023-04-17T05:55:33.003Z,100547.27
2023-04-17T05:56:36.159Z,100541.95
2023-04-17T05:57:38.352Z,100541.01
2023-04-17T05:58:42.482Z,100526.25
2023-04-17T05:59:46.964Z,100536.41
2023-04-17T06:00:50.247Z,100536.11
2023-04-17T06:01:53.252Z,100545.95
2023-04-17T06:02:57.116Z,100539.06
2023-04-17T06:04:14.785Z,100538.94
2023-04-17T06:05:20.069Z,100543.90
2023-04-17T06:06:23.045Z,100537.92
2023-04-17T06:07:28.627Z,100542.83
2023-04-17T06:08:33.225Z,100548.59
2023-04-17T06:09:36.724Z,100550.45
2023-04-17T06:10:39.253Z,100553.02
2023-04-17T06:11:41.501Z,100550.38
2023-04-17T06:12:44.839Z,100548.92
2023-04-17T06:13:47.474Z,100552.27
2023-04-17T06:14:51.618Z,100550.55
2023-04-17T06:15:55.485Z,100551.21
2023-04-17T06:16:58.731Z,100548.77
2023-04-17T06:18:01.409Z,100556.41
2023-04-17T06:19:04.028Z,100556.20
2023-04-17T06:20:09.891Z,100552.72
2023-04-17T06:21:12.268Z,100560.22
2023-04-17T06:22:15.630Z,100560.03
2023-04-17T06:23:18.102Z,100568.57
2023-04-17T06:24:21.060Z,100570.09
2023-04-17T06:25:23.564Z,100568.09
2023-04-17T06:26:27.524Z,100568.09
2023-04-17T06:27:29.680Z,100566.48
2023-04-17T06:28:32.420Z,100567.81
2023-04-17T06:29:34.842Z,100567.81
2023-04-17T06:30:39.178Z,100566.87
2023-04-17T06:31:42.357Z,100570.23
2023-04-17T06:32:44.753Z,100570.03
2023-04-17T06:33:49.918Z,100568.76
2023-04-17T06:34:59.456Z,100568.57
2023-04-17T06:35:59.051Z,100565.42
2023-04-17T06:37:03.727Z,100567.84
2023-04-17T06:38:06.448Z,100569.65
2023-04-17T06:39:09.014Z,100567.52
2023-04-17T06:40:12.680Z,100569.71
2023-04-17T06:41:15.754Z,100566.05
2023-04-17T06:42:19.924Z,100569.60
2023-04-17T06:43:24.106Z,100567.54
2023-04-17T06:44:31.154Z,100570.85
2023-04-17T06:45:35.521Z,100575.94
2023-04-17T06:46:40.559Z,100572.87
2023-04-17T06:47:47.891Z,100577.03
2023-04-17T06:48:52.734Z,100570.88
2023-04-17T06:49:57.145Z,100571.82
2023-04-17T06:51:00.233Z,100570.76
2023-04-17T06:52:03.959Z,100581.14
2023-04-17T06:53:06.318Z,100578.73
2023-04-17T06:54:11.270Z,100576.52
2023-04-17T06:55:13.460Z,100574.42
2023-04-17T06:56:16.258Z,100575.55
2023-04-17T06:57:18.479Z,100573.84
2023-04-17T06:58:20.870Z,100572.95
2023-04-17T06:59:23.080Z,100579.41
2023-04-17T07:00:27.058Z,100580.17
2023-04-17T07:01:31.368Z,100580.94
2023-04-17T07:02:33.892Z,100576.69
2023-04-17T07:03:38.101Z,100579.16
2023-04-17T07:04:41.084Z,100571.44
2023-04-17T07:05:44.281Z,100575.34
2023-04-17T07:06:46.961Z,100571.34
2023-04-17T07:07:49.582Z,100575.59
2023-04-17T07:08:53.539Z,100573.81
2023-04-17T07:09:56.406Z,100578.36
2023-04-17T07:10:59.642Z,100570.34
2023-04-17T07:12:03.224Z,100581.33
2023-04-17T07:13:05.303Z,100576.43
2023-04-17T07:14:07.665Z,100578.24
2023-04-17T07:15:11.062Z,100580.14
2023-04-17T07:16:14.242Z,100575.00
2023-04-17T07:17:17.125Z,100574.90
2023-04-17T07:18:20.911Z,100575.52
2023-04-17T07:19:23.270Z,100573.30
2023-04-17T07:20:25.625Z,100567.38
2023-04-17T07:21:28.260Z,100576.78
2023-04-17T07:22:32.222Z,100578.27
2023-04-17T07:23:35.172Z,100566.39
2023-04-17T07:24:37.941Z,100583.44
2023-04-17T07:25:40.571Z,100570.05
2023-04-17T07:26:43.406Z,100581.21
2023-04-17T07:27:45.877Z,100577.35
2023-04-17T07:28:48.193Z,100581.33
2023-04-17T07:29:52.851Z,100577.47
2023-04-17T07:30:57.918Z,100585.27
2023-04-17T07:32:00.267Z,100580.63
2023-04-17T07:33:02.755Z,100582.73
2023-04-17T07:34:05.552Z,100580.57
2023-04-17T07:35:08.633Z,100580.24
2023-04-17T07:36:11.452Z,100582.64
2023-04-17T07:37:17.145Z,100584.94
2023-04-17T07:38:20.405Z,100584.79
2023-04-17T07:39:23.907Z,100581.90
2023-04-17T07:40:26.869Z,100590.80
2023-04-17T07:41:29.740Z,100585.40
2023-04-17T07:42:31.972Z,100588.64
2023-04-17T07:43:34.814Z,100590.11
2023-04-17T07:44:38.994Z,100583.20
2023-04-17T07:45:42.059Z,100583.48
2023-04-17T07:46:44.619Z,100587.25
2023-04-17T07:47:47.432Z,100585.89
2023-04-17T07:48:49.868Z,100592.94
2023-04-17T07:49:52.439Z,100585.89
2023-04-17T07:50:54.845Z,100587.71
2023-04-17T07:51:57.552Z,100592.52
2023-04-17T07:53:01.576Z,100584.45
2023-04-17T07:54:04.422Z,100588.90
2023-04-17T07:55:07.316Z,100595.20
2023-04-17T07:56:12.286Z,100594.30
2023-04-17T07:57:15.472Z,100587.94
2023-04-17T07:58:18.814Z,100583.48
2023-04-17T07:59:22.790Z,100589.16
2023-04-17T08:00:26.110Z,100584.75
2023-04-17T08:01:28.621Z,100582.56
2023-04-17T08:02:30.800Z,100577.89
2023-04-17T08:03:34.658Z,100585.34
2023-04-17T08:04:39.124Z,100582.42
2023-04-17T08:05:41.816Z,100583.68
2023-04-17T08:06:45.239Z,100582.55
2023-04-17T08:07:47.392Z,100575.41
2023-04-17T08:08:49.628Z,100579.05
2023-04-17T08:09:52.356Z,100578.82
2023-04-17T08:10:56.013Z,100572.34
2023-04-17T08:11:58.857Z,100576.66
2023-04-17T08:13:01.494Z,100576.42
2023-04-17T08:14:03.697Z,100568.84
2023-04-17T08:15:07.627Z,100574.79
2023-04-17T08:16:10.358Z,100569.48
2023-04-17T08:17:13.528Z,100572.92
2023-04-17T08:18:16.369Z,100572.00
2023-04-17T08:19:19.277Z,100575.41
2023-04-17T08:20:22.148Z,100569.17
2023-04-17T08:21:25.335Z,100570.59
2023-04-17T08:22:29.436Z,100570.16
2023-04-17T08:23:31.880Z,100566.78
2023-04-17T08:24:34.454Z,100566.72
2023-04-17T08:25:36.789Z,100561.30
2023-04-17T08:26:39.019Z,100561.30
2023-04-17T08:27:42.981Z,100571.72
2023-04-17T08:28:46.586Z,100570.36
2023-04-17T08:29:49.452Z,100565.66
2023-04-17T08:30:51.942Z,100566.95
2023-04-17T08:32:06.840Z,100564.12
2023-04-17T08:32:58.226Z,100570.23
2023-04-17T08:34:10.942Z,100567.53
2023-04-17T08:35:07.571Z,100561.95
2023-04-17T08:36:10.697Z,100564.05
2023-04-17T08:37:13.773Z,100559.19
2023-04-17T08:38:16.161Z,100563.73
2023-04-17T08:39:19.034Z,100556.33
2023-04-17T08:40:23.571Z,100561.31
2023-04-17T08:41:28.926Z,100557.97
2023-04-17T08:42:34.719Z,100562.37
2023-04-17T08:43:37.543Z,100558.16
2023-04-17T08:44:39.863Z,100554.61
2023-04-17T08:45:50.321Z,100559.04
2023-04-17T08:46:57.989Z,100552.87
2023-04-17T08:48:00.402Z,100560.31
2023-04-17T08:49:03.590Z,100556.22
2023-04-17T08:50:10.684Z,100551.02
2023-04-17T08:51:14.128Z,100557.12
2023-04-17T08:52:17.042Z,100560.00
2023-04-17T08:53:20.545Z,100566.13
2023-04-17T08:54:23.471Z,100562.75
2023-04-17T08:55:27.660Z,100562.45
2023-04-17T08:56:30.426Z,100570.33
2023-04-17T08:57:32.821Z,100552.25
2023-04-17T08:58:36.475Z,100552.12
2023-04-17T08:59:42.800Z,100561.69
2023-04-17T09:00:50.700Z,100553.91
2023-04-17T09:02:01.281Z,100568.27
2023-04-17T09:03:10.728Z,100562.03
2023-04-17T09:04:38.222Z,100561.16
2023-04-17T09:05:44.894Z,100565.67
2023-04-17T09:06:54.733Z,100565.22
2023-04-17T09:08:14.632Z,100564.98
2023-04-17T09:09:17.697Z,100568.48
2023-04-17T09:10:20.255Z,100559.46
2023-04-17T09:11:23.562Z,100566.08
2023-04-17T09:12:26.608Z,100569.66
2023-04-17T09:13:30.498Z,100565.13
2023-04-17T09:14:33.838Z,100563.86
2023-04-17T09:15:37.476Z,100560.24
2023-04-17T09:16:44.017Z,100559.94
2023-04-17T09:17:48.943Z,100560.98
2023-04-17T09:18:52.344Z,100563.44
2023-04-17T09:20:06.133Z,100562.20
2023-04-17T09:21:09.241Z,100559.94
2023-04-17T09:22:19.370Z,100559.07
2023-04-17T09:23:23.770Z,100558.55
2023-04-17T09:24:37.093Z,100556.23
2023-04-17T09:25:40.200Z,100560.33
2023-04-17T09:26:42.677Z,100553.82
2023-04-17T09:27:47.253Z,100553.53
2023-04-17T09:29:14.274Z,100547.88
2023-04-17T09:30:19.247Z,100550.38
2023-04-17T09:31:26.217Z,100545.61
2023-04-17T09:32:31.565Z,100545.61
2023-04-17T09:33:34.437Z,100548.15
2023-04-17T09:34:41.720Z,100545.27
2023-04-17T09:35:44.029Z,100541.12
2023-04-17T09:36:46.517Z,100544.75
2023-04-17T09:37:53.624Z,100538.13
2023-04-17T09:38:57.170Z,100547.20
2023-04-17T09:40:01.659Z,100544.13
2023-04-17T09:41:05.263Z,100545.84
2023-04-17T09:42:09.596Z,100547.55
2023-04-17T09:43:12.593Z,100542.84
2023-04-17T09:44:26.620Z,100544.30
2023-04-17T09:45:32.321Z,100539.59
2023-04-17T09:46:38.986Z,100531.39
2023-04-17T09:47:44.681Z,100526.66
2023-04-17T09:48:48.113Z,100531.48
2023-04-17T09:49:53.366Z,100528.70
2023-04-17T09:50:56.328Z,100524.39
2023-04-17T09:51:59.976Z,100529.43
2023-04-17T09:53:04.013Z,100530.90
2023-04-17T09:54:08.216Z,100535.48
2023-04-17T09:55:16.378Z,100522.52
2023-04-17T09:56:21.848Z,100521.44
2023-04-17T09:57:25.440Z,100525.55
2023-04-17T09:58:30.195Z,100527.87
2023-04-17T09:59:33.037Z,100524.83
2023-04-17T10:00:37.309Z,100522.69
2023-04-17T10:01:40.663Z,100530.12
2023-04-17T10:02:44.542Z,100525.80
2023-04-17T10:03:48.646Z,100526.64
2023-04-17T10:04:52.861Z,100527.00
2023-04-17T10:05:55.668Z,100531.71
2023-04-17T10:06:58.083Z,100525.40
2023-04-17T10:08:00.461Z,100529.23
2023-04-17T10:09:05.980Z,100521.73
2023-04-17T10:10:10.832Z,100530.66
2023-04-17T10:11:13.701Z,100524.39
2023-04-17T10:12:18.208Z,100524.28
2023-04-17T10:13:27.686Z,100527.30
2023-04-17T10:14:33.980Z,100516.56
2023-04-17T10:15:36.376Z,100523.62
2023-04-17T10:16:43.104Z,100519.51
2023-04-17T10:17:46.329Z,100523.90
2023-04-17T10:18:52.132Z,100520.95
2023-04-17T10:19:55.913Z,100514.36
2023-04-17T10:21:03.395Z,100507.60
2023-04-17T10:22:22.392Z,100518.92
2023-04-17T10:23:30.723Z,100504.80
2023-04-17T10:24:33.287Z,100508.05
2023-04-17T10:25:36.081Z,100506.77
2023-04-17T10:26:40.651Z,100512.38
2023-04-17T10:27:45.636Z,100513.06
2023-04-17T10:28:50.434Z,100504.67
2023-04-17T10:30:01.657Z,100503.80
2023-04-17T10:31:04.167Z,100510.30
2023-04-17T10:32:12.950Z,100500.63
2023-04-17T10:33:19.406Z,100497.75
2023-04-17T10:34:35.655Z,100506.09
2023-04-17T10:35:37.950Z,100500.47
2023-04-17T10:36:46.768Z,100502.52
2023-04-17T10:37:53.274Z,100496.59
2023-04-17T10:39:00.319Z,100513.70
2023-04-17T10:40:04.688Z,100509.09
2023-04-17T10:41:10.605Z,100511.20
2023-04-17T10:42:19.184Z,100510.08
2023-04-17T10:43:23.898Z,100511.99
2023-04-17T10:44:26.127Z,100508.75
2023-04-17T10:45:48.081Z,100511.70
2023-04-17T10:48:01.451Z,100501.45
2023-04-17T10:49:05.197Z,100494.97
2023-04-17T10:50:09.864Z,100499.28
2023-04-17T10:51:28.455Z,100497.63
2023-04-17T10:52:34.277Z,100495.80
2023-04-17T10:53:44.277Z,100502.22
2023-04-17T10:55:25.590Z,100503.53
2023-04-17T10:56:48.018Z,100494.14
2023-04-17T10:58:02.693Z,100496.89
2023-04-17T10:59:11.574Z,100498.80
2023-04-17T11:00:16.619Z,100495.53
2023-04-17T11:01:19.136Z,100495.45
2023-04-17T11:02:34.381Z,100494.76
2023-04-17T11:03:38.373Z,100495.93
2023-04-17T11:04:40.879Z,100491.97
2023-04-17T11:05:46.892Z,100491.22
2023-04-17T11:06:57.531Z,100503.52
2023-04-17T11:07:59.916Z,100495.67
2023-04-17T11:09:09.477Z,100492.00
2023-04-17T11:10:17.567Z,100492.00
2023-04-17T11:11:27.021Z,100487.99
2023-04-17T11:12:31.923Z,100484.84
2023-04-17T11:13:34.865Z,100489.87
2023-04-17T11:14:42.029Z,100487.99
2023-04-17T11:15:44.805Z,100487.16
2023-04-17T11:16:50.582Z,100492.36
2023-04-17T11:17:55.729Z,100484.02
2023-04-17T11:18:58.583Z,100487.59
2023-04-17T11:20:01.254Z,100487.80
2023-04-17T11:21:04.277Z,100473.21
2023-04-17T11:22:10.913Z,100475.84
2023-04-17T11:23:15.103Z,100481.69
2023-04-17T11:24:27.616Z,100470.02
2023-04-17T11:25:33.084Z,100479.36
2023-04-17T11:26:47.188Z,100476.36
2023-04-17T11:27:57.822Z,100480.17
2023-04-17T11:29:01.576Z,100475.39
2023-04-17T11:30:05.669Z,100465.96
2023-04-17T11:31:09.666Z,100473.70
2023-04-17T11:32:12.762Z,100473.70
2023-04-17T11:33:15.949Z,100469.83
2023-04-17T11:34:21.613Z,100469.41
2023-04-17T11:35:30.277Z,100457.99
2023-04-17T11:36:33.194Z,100458.66
2023-04-17T11:37:35.474Z,100464.77
2023-04-17T11:38:46.740Z,100469.41
2023-04-17T11:39:49.732Z,100457.42
2023-04-17T11:40:55.618Z,100458.76
2023-04-17T11:41:58.543Z,100460.09
2023-04-17T11:43:04.281Z,100455.50
2023-04-17T11:44:11.855Z,100462.75
2023-04-17T11:45:15.075Z,100459.58
2023-04-17T11:46:18.825Z,100464.16
2023-04-17T11:47:22.547Z,100448.04
2023-04-17T11:48:29.751Z,100450.94
2023-04-17T11:49:40.316Z,100449.31
2023-04-17T11:50:47.201Z,100450.75
2023-04-17T11:51:49.504Z,100457.30
2023-04-17T11:52:51.766Z,100456.95
2023-04-17T11:53:55.552Z,100450.20
2023-04-17T11:54:58.302Z,100449.95
2023-04-17T11:56:17.748Z,100451.50
2023-04-17T11:57:20.623Z,100451.45
2023-04-17T11:58:22.941Z,100446.61
2023-04-17T11:59:34.194Z,100445.49
2023-04-17T12:00:37.621Z,100443.30
2023-04-17T12:01:44.071Z,100444.48
2023-04-17T12:02:46.655Z,100448.75
2023-04-17T12:03:49.461Z,100444.16
2023-04-17T12:04:55.790Z,100438.21
2023-04-17T12:06:04.178Z,100440.23
2023-04-17T12:07:08.202Z,100438.78
2023-04-17T12:08:10.661Z,100431.74
2023-04-17T12:09:22.278Z,100438.64
2023-04-17T12:10:24.767Z,100435.89
2023-04-17T12:11:33.699Z,100440.23
2023-04-17T12:12:36.304Z,100440.87
2023-04-17T12:13:41.076Z,100443.23
2023-04-17T12:14:43.434Z,100443.45
2023-04-17T12:15:45.667Z,100438.34
2023-04-17T12:16:50.273Z,100440.59
2023-04-17T12:17:52.569Z,100438.19